Time,TemperatureF,DewpointF,PressureIn,WindDirection,WindDirectionDegrees,WindSpeedMPH,WindSpeedGustMPH,Humidity,HourlyPrecipIn,Conditions,Clouds,dailyrainin,SoftwareType,DateUTC
2013-05-06 00:02:00,52.5,51.4,29.49,NW,315,0.0,-999.0,96,-99.99,,,0.00,Acu-Link.com,2013-05-06 04:02:00,
2013-05-06 00:17:00,53.2,52.1,29.49,SSW,202,1.7,-999.0,96,-99.99,,,0.00,Acu-Link.com,2013-05-06 04:17:00,
2013-05-06 00:32:00,53.2,52.1,29.48,NNE,22,0.0,-999.0,96,-99.99,,,0.01,Acu-Link.com,2013-05-06 04:32:00,
2013-05-06 00:47:00,53.4,52.3,29.48,NE,45,0.0,-999.0,96,-99.99,,,0.01,Acu-Link.com,2013-05-06 04:47:00,
2013-05-06 01:03:00,53.2,52.1,29.47,East,90,0.0,-999.0,96,-99.99,,,0.01,Acu-Link.com,2013-05-06 05:03:00,
2013-05-06 01:18:00,53.1,52.0,29.48,NE,45,1.1,-999.0,96,-99.99,,,0.01,Acu-Link.com,2013-05-06 05:18:00,
2013-05-06 01:33:00,52.9,51.8,29.47,SW,225,0.0,-999.0,96,-99.99,,,0.01,Acu-Link.com,2013-05-06 05:33:00,
2013-05-06 01:49:00,52.9,51.8,29.47,East,90,1.1,-999.0,96,-99.99,,,0.01,Acu-Link.com,2013-05-06 05:49:00,
2013-05-06 02:04:00,52.9,51.8,29.47,West,270,1.1,-999.0,96,-99.99,,,0.01,Acu-Link.com,2013-05-06 06:04:00,
2013-05-06 02:19:00,53.1,52.0,29.47,ENE,67,0.0,-999.0,96,-99.99,,,0.01,Acu-Link.com,2013-05-06 06:19:00,
2013-05-06 02:35:00,53.1,52.0,29.47,SSE,157,0.0,-999.0,96,-99.99,,,0.01,Acu-Link.com,2013-05-06 06:35:00,
2013-05-06 02:50:00,53.1,52.0,29.47,East,90,2.2,-999.0,96,-99.99,,,0.01,Acu-Link.com,2013-05-06 06:50:00,
2013-05-06 03:05:00,52.9,51.8,29.47,South,180,0.0,-999.0,96,-99.99,,,0.01,Acu-Link.com,2013-05-06 07:05:00,
2013-05-06 03:20:00,52.7,51.6,29.47,West,270,3.2,-999.0,96,-99.99,,,0.02,Acu-Link.com,2013-05-06 07:20:00,
2013-05-06 03:35:00,52.7,51.6,29.47,ESE,112,1.7,-999.0,96,-99.99,,,0.02,Acu-Link.com,2013-05-06 07:35:00,
2013-05-06 03:51:00,52.7,51.6,29.47,WNW,292,0.0,-999.0,96,-99.99,,,0.02,Acu-Link.com,2013-05-06 07:51:00,
2013-05-06 04:06:00,52.5,51.4,29.47,NNE,22,0.0,-999.0,96,-99.99,,,0.02,Acu-Link.com,2013-05-06 08:06:00,
2013-05-06 04:21:00,52.5,51.4,29.47,NE,45,0.0,-999.0,96,-99.99,,,0.02,Acu-Link.com,2013-05-06 08:21:00,
2013-05-06 04:36:00,52.3,51.2,29.47,ENE,67,0.0,-999.0,96,-99.99,,,0.02,Acu-Link.com,2013-05-06 08:36:00,
2013-05-06 04:51:00,52.2,51.1,29.46,ESE,112,0.0,-999.0,96,-99.99,,,0.02,Acu-Link.com,2013-05-06 08:51:00,
2013-05-06 05:06:00,52.2,51.1,29.46,West,270,0.0,-999.0,96,-99.99,,,0.02,Acu-Link.com,2013-05-06 09:06:00,
2013-05-06 05:21:00,52.2,51.1,29.46,NE,45,1.7,-999.0,96,-99.99,,,0.02,Acu-Link.com,2013-05-06 09:21:00,
2013-05-06 05:37:00,52.0,50.9,29.47,NNE,22,0.0,-999.0,96,-99.99,,,0.02,Acu-Link.com,2013-05-06 09:37:00,
2013-05-06 05:52:00,52.0,50.9,29.47,SSW,202,1.7,-999.0,96,-99.99,,,0.02,Acu-Link.com,2013-05-06 09:52:00,
2013-05-06 06:07:00,51.6,50.2,29.47,South,180,1.1,-999.0,95,-99.99,,,0.02,Acu-Link.com,2013-05-06 10:07:00,
2013-05-06 06:23:00,51.6,50.2,29.48,South,180,0.0,-999.0,95,-99.99,,,0.02,Acu-Link.com,2013-05-06 10:23:00,
2013-05-06 06:38:00,51.4,50.0,29.48,South,180,0.0,-999.0,95,-99.99,,,0.02,Acu-Link.com,2013-05-06 10:38:00,
2013-05-06 06:53:00,51.4,50.0,29.49,South,180,0.0,-999.0,95,-99.99,,,0.03,Acu-Link.com,2013-05-06 10:53:00,
2013-05-06 07:08:00,51.3,49.9,29.49,SSW,202,2.7,-999.0,95,-99.99,,,0.03,Acu-Link.com,2013-05-06 11:08:00,
2013-05-06 07:24:00,50.9,49.5,29.49,SW,225,0.0,-999.0,95,-99.99,,,0.03,Acu-Link.com,2013-05-06 11:24:00,
2013-05-06 07:39:00,50.9,49.5,29.50,SSE,157,0.0,-999.0,95,-99.99,,,0.03,Acu-Link.com,2013-05-06 11:39:00,
2013-05-06 07:54:00,50.5,49.1,29.50,ESE,112,0.0,-999.0,95,-99.99,,,0.03,Acu-Link.com,2013-05-06 11:54:00,
2013-05-06 08:10:00,50.9,49.5,29.50,ESE,112,0.0,-999.0,95,-99.99,,,0.03,Acu-Link.com,2013-05-06 12:10:00,
2013-05-06 08:25:00,50.4,49.0,29.51,South,180,3.7,-999.0,95,-99.99,,,0.03,Acu-Link.com,2013-05-06 12:25:00,
2013-05-06 08:40:00,50.4,49.0,29.52,SSW,202,0.0,-999.0,95,-99.99,,,0.03,Acu-Link.com,2013-05-06 12:40:00,
2013-05-06 08:56:00,50.2,48.8,29.52,SSW,202,2.7,-999.0,95,-99.99,,,0.03,Acu-Link.com,2013-05-06 12:56:00,
2013-05-06 09:11:00,50.0,48.6,29.53,SSW,202,1.1,-999.0,95,-99.99,,,0.03,Acu-Link.com,2013-05-06 13:11:00,
2013-05-06 09:26:00,50.9,49.8,29.53,SSW,202,2.2,-999.0,96,-99.99,,,0.03,Acu-Link.com,2013-05-06 13:26:00,
2013-05-06 09:42:00,51.1,50.3,29.53,SSE,157,1.1,-999.0,97,-99.99,,,0.03,Acu-Link.com,2013-05-06 13:42:00,
2013-05-06 09:57:00,51.6,51.3,29.53,SE,135,0.0,-999.0,99,-99.99,,,0.03,Acu-Link.com,2013-05-06 13:57:00,
2013-05-06 10:12:00,54.1,52.4,29.54,SW,225,1.7,-999.0,94,-99.99,,,0.03,Acu-Link.com,2013-05-06 14:12:00,
2013-05-06 10:28:00,53.2,51.2,29.54,SSE,157,2.2,-999.0,93,-99.99,,,0.03,Acu-Link.com,2013-05-06 14:28:00,
2013-05-06 10:43:00,54.7,51.2,29.54,SSW,202,0.0,-999.0,88,-99.99,,,0.03,Acu-Link.com,2013-05-06 14:43:00,
2013-05-06 10:58:00,53.1,50.2,29.55,SSW,202,3.2,-999.0,90,-99.99,,,0.03,Acu-Link.com,2013-05-06 14:58:00,
2013-05-06 11:13:00,55.9,52.7,29.55,NW,315,2.2,-999.0,89,-99.99,,,0.03,Acu-Link.com,2013-05-06 15:13:00,
2013-05-06 11:28:00,54.3,51.4,29.55,SSW,202,3.2,-999.0,90,-99.99,,,0.03,Acu-Link.com,2013-05-06 15:28:00,
2013-05-06 11:44:00,56.1,51.0,29.55,South,180,4.7,-999.0,83,-99.99,,,0.03,Acu-Link.com,2013-05-06 15:44:00,
2013-05-06 11:59:00,56.1,50.3,29.55,SSW,202,2.2,-999.0,81,-99.99,,,0.03,Acu-Link.com,2013-05-06 15:59:00,
2013-05-06 12:14:00,56.1,47.9,29.55,SW,225,4.2,-999.0,74,-99.99,,,0.03,Acu-Link.com,2013-05-06 16:14:00,
2013-05-06 12:29:00,58.1,48.0,29.55,NE,45,1.7,-999.0,69,-99.99,,,0.03,Acu-Link.com,2013-05-06 16:29:00,
2013-05-06 12:44:00,58.3,47.0,29.54,East,90,0.0,-999.0,66,-99.99,,,0.03,Acu-Link.com,2013-05-06 16:44:00,
2013-05-06 12:59:00,58.6,46.5,29.54,SSW,202,3.7,-999.0,64,-99.99,,,0.03,Acu-Link.com,2013-05-06 16:59:00,
2013-05-06 13:14:00,59.7,48.3,29.54,SSW,202,4.2,-999.0,66,-99.99,,,0.03,Acu-Link.com,2013-05-06 17:14:00,
2013-05-06 13:30:00,58.6,44.8,29.53,West,270,3.7,-999.0,60,-99.99,,,0.03,Acu-Link.com,2013-05-06 17:30:00,
2013-05-06 13:45:00,59.7,46.2,29.53,SSW,202,5.3,-999.0,61,-99.99,,,0.03,Acu-Link.com,2013-05-06 17:45:00,
2013-05-06 14:00:00,56.8,45.2,29.53,SSW,202,7.8,-999.0,65,-99.99,,,0.03,Acu-Link.com,2013-05-06 18:00:00,
2013-05-06 14:15:00,58.8,46.6,29.53,SW,225,2.7,-999.0,64,-99.99,,,0.03,Acu-Link.com,2013-05-06 18:15:00,
2013-05-06 14:30:00,59.7,46.7,29.53,SSW,202,4.2,-999.0,62,-99.99,,,0.03,Acu-Link.com,2013-05-06 18:30:00,
2013-05-06 14:46:00,59.2,46.2,29.52,SW,225,3.7,-999.0,62,-99.99,,,0.03,Acu-Link.com,2013-05-06 18:46:00,
2013-05-06 15:01:00,60.1,46.2,29.52,SW,225,3.7,-999.0,60,-99.99,,,0.03,Acu-Link.com,2013-05-06 19:01:00,
2013-05-06 15:16:00,59.9,46.8,29.51,SE,135,3.2,-999.0,62,-99.99,,,0.03,Acu-Link.com,2013-05-06 19:16:00,
2013-05-06 15:31:00,60.1,47.5,29.51,South,180,4.7,-999.0,63,-99.99,,,0.03,Acu-Link.com,2013-05-06 19:31:00,
2013-05-06 15:47:00,59.9,46.8,29.51,SSW,202,7.8,-999.0,62,-99.99,,,0.03,Acu-Link.com,2013-05-06 19:47:00,
2013-05-06 16:02:00,57.2,46.3,29.52,South,180,5.8,-999.0,67,-99.99,,,0.03,Acu-Link.com,2013-05-06 20:02:00,
2013-05-06 16:17:00,59.2,47.8,29.51,SSW,202,5.3,-999.0,66,-99.99,,,0.03,Acu-Link.com,2013-05-06 20:17:00,
2013-05-06 16:32:00,59.7,47.1,29.51,SSW,202,5.3,-999.0,63,-99.99,,,0.03,Acu-Link.com,2013-05-06 20:32:00,
2013-05-06 16:47:00,57.6,46.7,29.51,SSW,202,4.7,-999.0,67,-99.99,,,0.03,Acu-Link.com,2013-05-06 20:47:00,
2013-05-06 17:02:00,58.3,47.0,29.51,South,180,3.7,-999.0,66,-99.99,,,0.03,Acu-Link.com,2013-05-06 21:02:00,
2013-05-06 17:17:00,57.9,46.6,29.51,SSW,202,3.2,-999.0,66,-99.99,,,0.03,Acu-Link.com,2013-05-06 21:17:00,
2013-05-06 17:33:00,57.2,46.7,29.52,SSW,202,8.3,-999.0,68,-99.99,,,0.03,Acu-Link.com,2013-05-06 21:33:00,
2013-05-06 17:48:00,56.7,47.0,29.52,SW,225,6.3,-999.0,70,-99.99,,,0.03,Acu-Link.com,2013-05-06 21:48:00,
2013-05-06 18:03:00,56.3,46.3,29.51,South,180,2.7,-999.0,69,-99.99,,,0.03,Acu-Link.com,2013-05-06 22:03:00,
2013-05-06 18:18:00,56.1,46.1,29.52,SW,225,3.2,-999.0,69,-99.99,,,0.03,Acu-Link.com,2013-05-06 22:18:00,
2013-05-06 18:33:00,55.8,45.0,29.52,WNW,292,4.7,-999.0,67,-99.99,,,0.03,Acu-Link.com,2013-05-06 22:33:00,
2013-05-06 18:48:00,55.8,45.8,29.52,SSW,202,4.2,-999.0,69,-99.99,,,0.03,Acu-Link.com,2013-05-06 22:48:00,
2013-05-06 19:04:00,55.4,45.4,29.52,SSW,202,4.7,-999.0,69,-99.99,,,0.03,Acu-Link.com,2013-05-06 23:04:00,
2013-05-06 19:19:00,54.9,46.0,29.52,WSW,247,3.2,-999.0,72,-99.99,,,0.03,Acu-Link.com,2013-05-06 23:19:00,
2013-05-06 19:34:00,54.0,45.2,29.53,SW,225,3.2,-999.0,72,-99.99,,,0.03,Acu-Link.com,2013-05-06 23:34:00,
2013-05-06 19:49:00,53.1,45.7,29.53,SW,225,3.7,-999.0,76,-99.99,,,0.03,Acu-Link.com,2013-05-06 23:49:00,
2013-05-06 20:04:00,52.2,45.9,29.54,SSW,202,5.3,-999.0,79,-99.99,,,0.03,Acu-Link.com,2013-05-07 00:04:00,
2013-05-06 20:20:00,51.3,46.3,29.54,SSW,202,4.2,-999.0,83,-99.99,,,0.03,Acu-Link.com,2013-05-07 00:20:00,
2013-05-06 20:35:00,50.5,46.2,29.54,WSW,247,1.7,-999.0,85,-99.99,,,0.03,Acu-Link.com,2013-05-07 00:35:00,
2013-05-06 20:50:00,49.8,46.1,29.55,WSW,247,3.2,-999.0,87,-99.99,,,0.03,Acu-Link.com,2013-05-07 00:50:00,
2013-05-06 21:05:00,48.9,46.1,29.55,SSW,202,4.2,-999.0,90,-99.99,,,0.03,Acu-Link.com,2013-05-07 01:05:00,
2013-05-06 21:20:00,48.9,45.8,29.55,SW,225,3.2,-999.0,89,-99.99,,,0.03,Acu-Link.com,2013-05-07 01:20:00,
2013-05-06 21:36:00,48.6,45.8,29.56,SW,225,1.7,-999.0,90,-99.99,,,0.03,Acu-Link.com,2013-05-07 01:36:00,
2013-05-06 21:51:00,48.2,46.0,29.57,SSW,202,2.7,-999.0,92,-99.99,,,0.03,Acu-Link.com,2013-05-07 01:51:00,
2013-05-06 22:06:00,47.7,45.8,29.56,SSW,202,2.7,-999.0,93,-99.99,,,0.03,Acu-Link.com,2013-05-07 02:06:00,
2013-05-06 22:21:00,47.7,46.1,29.57,West,270,0.0,-999.0,94,-99.99,,,0.03,Acu-Link.com,2013-05-07 02:21:00,
2013-05-06 22:36:00,47.5,45.9,29.57,WNW,292,0.0,-999.0,94,-99.99,,,0.03,Acu-Link.com,2013-05-07 02:36:00,
2013-05-06 22:52:00,47.3,45.9,29.57,SSW,202,0.0,-999.0,95,-99.99,,,0.03,Acu-Link.com,2013-05-07 02:52:00,
2013-05-06 23:07:00,46.8,45.4,29.57,ENE,67,0.0,-999.0,95,-99.99,,,0.03,Acu-Link.com,2013-05-07 03:07:00,
2013-05-06 23:22:00,45.5,45.0,29.57,NW,315,0.0,-999.0,98,-99.99,,,0.03,Acu-Link.com,2013-05-07 03:22:00,
2013-05-06 23:38:00,45.5,45.0,29.57,NW,315,0.0,-999.0,98,-99.99,,,0.03,Acu-Link.com,2013-05-07 03:38:00,
2013-05-06 23:53:00,45.7,44.9,29.56,SSE,157,0.0,-999.0,97,-99.99,,,0.03,Acu-Link.com,2013-05-07 03:53:00,